LLT weather

La Loma Airport
Trincheras, Sonora, Mexico

Public forecast

Using degrees Celsius for public forecast. Weather courtesy of forecast.io.

Closest aviation weather report (METAR) to La Loma Airport

Closest report is Nogales International Airport, 56.2 nm (104.1 km) NNE. Retrieved 2020/05/26 05:54 UTC (22 minutes ago):

KOLS 260554Z AUTO 15004KT 10SM CLR 20/M02 A3000 RMK AO2 SLP094 T02001022 10311 20178 51020

Closest aviation forecast (TAF) to La Loma Airport

Closest forecast is Nogales International Airport, 56.2 nm (104.1 km) NNE. Retrieved 2020/05/26 06:22 UTC (0 seconds ago):

TAF KOLS 260520Z 2606/2706 VRB03KT P6SM SKC FM261900 27008KT P6SM SKC FM270300 VRB03KT P6SM SKC